Time;durP1;ratioP1;P1;durP2;ratioP2;P2;SDS_P1;SDS_P2;PMS_P1;PMS_P2;Temp;Humidity;BMP_temperature;BMP_pressure;BME280_temperature;BME280_humidity;BME280_pressure;Samples;Min_cycle;Max_cycle;Signal;HPM_P1;HPM_P2
2022/03/09 00:01:23;;;;;;;13.57;8.85;;;;;;;3.71;50.90;102052.88;5287115;28;20040;-70
2022/03/09 00:03:54;;;;;;;10.32;8.18;;;;;;;3.72;50.45;102052.00;5283566;28;20020;-70
2022/03/09 00:06:26;;;;;;;10.95;7.65;;;;;;;3.72;51.59;102053.75;5266668;28;20032;-71
2022/03/09 00:08:57;;;;;;;13.25;8.98;;;;;;;3.72;51.91;102057.19;5285806;28;20024;-71
2022/03/09 00:11:29;;;;;;;12.70;8.43;;;;;;;3.81;51.11;102063.78;5285273;28;20058;-71
2022/03/09 00:14:00;;;;;;;11.25;8.55;;;;;;;3.69;51.65;102061.63;5264526;28;20032;-70
2022/03/09 00:16:31;;;;;;;12.85;8.02;;;;;;;3.60;50.72;102058.47;5263727;28;20992;-71
2022/03/09 00:19:03;;;;;;;14.30;8.75;;;;;;;3.65;50.35;102064.34;5265694;28;20105;-71
2022/03/09 00:21:34;;;;;;;11.15;8.20;;;;;;;3.61;50.97;102061.91;5282597;28;20059;-70
2022/03/09 00:24:07;;;;;;;10.07;8.27;;;;;;;3.60;51.03;102076.63;5282934;28;20027;-71
2022/03/09 00:26:38;;;;;;;10.07;7.38;;;;;;;3.51;52.13;102066.56;5285205;28;20450;-71
2022/03/09 00:29:10;;;;;;;10.38;7.57;;;;;;;3.53;51.65;102064.78;5286663;28;20020;-71
2022/03/09 00:31:41;;;;;;;9.88;7.10;;;;;;;3.48;51.07;102064.09;5284994;28;20485;-71
2022/03/09 00:34:12;;;;;;;13.32;8.40;;;;;;;3.54;52.67;102069.06;5285369;28;20020;-71
2022/03/09 00:36:45;;;;;;;12.73;7.63;;;;;;;3.50;52.32;102077.00;5280587;28;20066;-71
2022/03/09 00:39:16;;;;;;;12.63;7.95;;;;;;;3.39;52.28;102075.63;5264794;28;20043;-71
2022/03/09 00:41:47;;;;;;;12.50;7.80;;;;;;;3.44;51.93;102072.03;5283012;28;20020;-71
2022/03/09 00:44:19;;;;;;;12.32;7.93;;;;;;;3.44;50.91;102070.28;5284133;28;20035;-71
2022/03/09 00:46:50;;;;;;;13.15;7.88;;;;;;;3.52;50.03;102070.84;5266265;28;20016;-70
2022/03/09 00:49:21;;;;;;;11.07;7.57;;;;;;;3.49;50.71;102073.56;5284707;28;20473;-70
2022/03/09 00:51:52;;;;;;;9.77;6.75;;;;;;;3.48;50.49;102071.00;5286087;28;20092;-71
2022/03/09 00:54:24;;;;;;;9.90;6.95;;;;;;;3.59;50.17;102071.47;5282035;28;20036;-70
2022/03/09 00:56:55;;;;;;;10.02;7.10;;;;;;;3.52;51.54;102067.41;5287578;28;20035;-71
2022/03/09 00:59:26;;;;;;;9.18;7.13;;;;;;;3.49;51.16;102076.16;5267371;28;20033;-70
2022/03/09 01:01:57;;;;;;;11.70;7.55;;;;;;;3.50;50.55;102070.06;5285741;28;20060;-72
2022/03/09 01:04:29;;;;;;;10.25;7.30;;;;;;;3.38;52.72;102068.75;5284002;28;20024;-72
2022/03/09 01:07:01;;;;;;;9.65;7.65;;;;;;;3.29;51.71;102079.41;5285597;28;20468;-72
2022/03/09 01:09:32;;;;;;;12.00;7.57;;;;;;;3.14;52.12;102065.28;5285075;28;20060;-72
2022/03/09 01:12:04;;;;;;;12.32;7.32;;;;;;;3.11;52.78;102067.13;5288122;28;20069;-71
2022/03/09 01:14:35;;;;;;;12.18;7.10;;;;;;;3.04;53.41;102063.91;5288921;28;20458;-72
2022/03/09 01:17:07;;;;;;;11.38;7.53;;;;;;;2.98;52.01;102068.44;5290760;28;20396;-71
2022/03/09 01:19:38;;;;;;;12.23;7.43;;;;;;;2.85;52.74;102071.44;5285316;28;20097;-73
2022/03/09 01:22:09;;;;;;;11.38;7.68;;;;;;;2.90;54.15;102069.53;5289116;28;20024;-74
2022/03/09 01:24:40;;;;;;;11.77;7.10;;;;;;;2.85;53.36;102071.44;5285932;28;20738;-72
2022/03/09 01:27:12;;;;;;;11.30;7.35;;;;;;;2.73;53.87;102064.06;5290464;28;20031;-71
2022/03/09 01:29:43;;;;;;;10.45;6.95;;;;;;;2.64;54.52;102064.34;5288722;28;20056;-72
2022/03/09 01:32:14;;;;;;;10.65;7.20;;;;;;;2.55;54.71;102070.66;5288613;28;20365;-71
2022/03/09 01:34:45;;;;;;;9.75;7.53;;;;;;;2.62;54.14;102072.16;5288380;28;20381;-71
2022/03/09 01:37:17;;;;;;;9.82;7.47;;;;;;;2.64;54.10;102069.53;5286235;28;20025;-71
2022/03/09 01:39:48;;;;;;;9.85;6.88;;;;;;;2.66;53.03;102063.41;5288291;28;20027;-71
2022/03/09 01:42:19;;;;;;;10.52;7.70;;;;;;;2.51;54.59;102063.06;5288233;28;20021;-70
2022/03/09 01:44:51;;;;;;;11.55;7.55;;;;;;;2.53;54.09;102067.28;5288856;28;20032;-70
2022/03/09 01:47:23;;;;;;;13.38;7.57;;;;;;;2.48;54.16;102063.16;5284439;28;20035;-71
2022/03/09 01:49:54;;;;;;;12.55;7.57;;;;;;;2.52;54.63;102055.25;5289819;28;20489;-71
2022/03/09 01:54:59;;;;;;;11.30;7.05;;;;;;;2.59;52.88;102053.31;5251786;28;20048;-72
2022/03/09 01:57:31;;;;;;;11.45;7.40;;;;;;;2.58;53.71;102057.66;5263738;28;20043;-72
2022/03/09 02:00:04;;;;;;;9.55;6.72;;;;;;;2.54;53.34;102043.13;5265107;28;20099;-72
2022/03/09 02:02:35;;;;;;;11.75;7.18;;;;;;;2.53;54.39;102054.34;5264332;28;20032;-75
2022/03/09 02:05:07;;;;;;;13.80;7.63;;;;;;;2.46;53.54;102045.06;5264287;28;20037;-72
2022/03/09 02:10:29;;;;;;;8.75;6.55;;;;;;;2.69;53.32;102046.97;5264684;28;20040;-72
2022/03/09 02:13:00;;;;;;;11.05;7.20;;;;;;;2.64;53.85;102041.06;5265641;28;20017;-72
2022/03/09 02:15:31;;;;;;;10.68;7.43;;;;;;;2.73;53.10;102053.72;5264028;28;20938;-72
2022/03/09 02:18:03;;;;;;;11.18;7.57;;;;;;;2.66;53.72;102053.06;5263991;28;20393;-72
2022/03/09 02:20:40;;;;;;;10.02;6.93;;;;;;;2.78;52.88;102057.00;5263641;28;20031;-73
2022/03/09 02:23:12;;;;;;;11.30;7.05;;;;;;;2.68;53.25;102058.19;5262540;28;20418;-72
2022/03/09 02:25:43;;;;;;;9.88;7.07;;;;;;;2.65;53.57;102061.72;5263640;28;20009;-72
2022/03/09 02:28:14;;;;;;;11.13;7.55;;;;;;;2.54;54.11;102056.06;5264487;28;20043;-72
2022/03/09 02:30:45;;;;;;;10.10;7.22;;;;;;;2.51;54.50;102057.88;5243514;28;20041;-72
2022/03/09 02:33:17;;;;;;;14.75;7.63;;;;;;;2.40;54.51;102053.88;5260657;28;20043;-72
2022/03/09 02:35:51;;;;;;;10.38;7.45;;;;;;;2.31;54.79;102061.94;5264175;28;20055;-72
2022/03/09 02:38:22;;;;;;;11.35;7.15;;;;;;;2.16;55.67;102046.91;5264702;28;20033;-72
2022/03/09 02:40:56;;;;;;;11.48;7.28;;;;;;;2.11;55.76;102049.59;5263543;28;20415;-72
2022/03/09 02:43:27;;;;;;;11.75;8.50;;;;;;;2.04;56.11;102055.84;5251186;28;20093;-72
2022/03/09 02:45:58;;;;;;;12.27;7.57;;;;;;;2.11;57.58;102041.84;5263885;28;20017;-73
2022/03/09 02:48:30;;;;;;;10.60;7.18;;;;;;;2.03;55.58;102045.56;5262522;28;20297;-73
2022/03/09 02:51:01;;;;;;;12.93;7.65;;;;;;;1.99;56.13;102028.47;5264571;28;20256;-72
2022/03/09 02:53:32;;;;;;;14.48;7.80;;;;;;;2.00;56.09;102036.16;5262020;28;20036;-72
2022/03/09 02:56:04;;;;;;;10.23;7.43;;;;;;;1.89;56.10;102038.22;5264703;28;20032;-72
2022/03/09 02:58:35;;;;;;;13.02;7.80;;;;;;;1.88;56.48;102039.09;5246289;28;20020;-72
2022/03/09 03:01:07;;;;;;;13.57;7.47;;;;;;;1.87;57.07;102030.50;5262012;28;20021;-74
2022/03/09 03:03:40;;;;;;;10.27;7.45;;;;;;;1.90;56.46;102034.75;5263655;28;20016;-72
2022/03/09 03:06:12;;;;;;;11.93;7.97;;;;;;;1.99;56.48;102044.81;5261773;28;20027;-72
2022/03/09 03:08:44;;;;;;;12.23;8.10;;;;;;;1.96;57.18;102039.72;5261480;28;20039;-72
2022/03/09 03:11:15;;;;;;;10.98;7.28;;;;;;;1.99;56.47;102043.97;5263992;28;20028;-73
2022/03/09 03:13:49;;;;;;;10.68;6.60;;;;;;;2.06;56.01;102030.81;5262963;28;20021;-72
2022/03/09 03:16:20;;;;;;;;;;;;;;;2.44;54.90;102042.56;5264043;28;20012;-72
2022/03/09 03:18:51;;;;;;;10.93;7.70;;;;;;;1.99;56.61;102044.81;5263895;28;19972;-72
2022/03/09 03:21:22;;;;;;;12.57;7.78;;;;;;;1.96;57.11;102042.31;5260706;28;20329;-72
2022/03/09 03:23:54;;;;;;;10.70;7.38;;;;;;;1.94;57.45;102047.53;5263013;28;20024;-74
2022/03/09 03:26:25;;;;;;;10.10;7.20;;;;;;;1.86;57.45;102039.16;5245582;28;20035;-72
2022/03/09 03:28:58;;;;;;;12.07;8.15;;;;;;;1.83;57.56;102028.06;5261444;28;20078;-72
2022/03/09 03:31:30;;;;;;;11.57;8.00;;;;;;;1.89;57.16;102033.03;5262137;28;20036;-72
2022/03/09 03:34:01;;;;;;;11.65;7.22;;;;;;;1.87;57.87;102040.84;5263827;28;20075;-72
2022/03/09 03:36:32;;;;;;;10.75;7.47;;;;;;;1.86;57.08;102030.56;5263161;28;20078;-72
2022/03/09 03:39:04;;;;;;;12.52;7.93;;;;;;;1.90;56.97;102027.84;5261556;28;20036;-72
2022/03/09 03:41:36;;;;;;;13.95;7.97;;;;;;;1.92;57.00;102033.78;5263019;28;20078;-72
2022/03/09 03:44:08;;;;;;;12.35;7.45;;;;;;;1.97;56.54;102031.09;5261620;28;20103;-72
2022/03/09 03:46:41;;;;;;;12.93;8.15;;;;;;;1.92;56.81;102022.63;5262972;28;20484;-72
2022/03/09 03:49:12;;;;;;;11.77;7.38;;;;;;;2.01;56.97;102027.53;5265591;28;20531;-72
2022/03/09 03:51:43;;;;;;;10.50;7.30;;;;;;;1.98;56.50;102030.19;5261482;28;20028;-72
2022/03/09 03:54:15;;;;;;;11.05;7.25;;;;;;;2.01;56.44;102035.28;5262021;28;20053;-72
2022/03/09 03:56:46;;;;;;;9.90;7.32;;;;;;;2.02;56.63;102036.97;5264048;28;20056;-72
2022/03/09 03:59:17;;;;;;;11.18;7.63;;;;;;;2.01;56.22;102032.69;5263325;28;20028;-72
2022/03/09 04:01:49;;;;;;;15.02;7.78;;;;;;;1.99;56.75;102037.06;5261362;28;20393;-72
2022/03/09 04:04:20;;;;;;;10.63;7.57;;;;;;;2.04;56.38;102042.91;5262137;28;20024;-72
2022/03/09 04:06:51;;;;;;;14.20;7.45;;;;;;;2.02;56.34;102039.56;5263230;28;20378;-72
2022/03/09 04:09:22;;;;;;;13.88;8.55;;;;;;;1.94;56.91;102044.09;5262659;28;20380;-72
2022/03/09 04:11:54;;;;;;;13.15;7.85;;;;;;;1.88;56.60;102039.94;5261479;28;20142;-72
2022/03/09 04:14:25;;;;;;;10.88;6.93;;;;;;;1.89;56.87;102041.63;5262889;28;20434;-72
2022/03/09 04:16:56;;;;;;;15.48;7.70;;;;;;;1.88;57.00;102047.69;5262437;28;20028;-72
2022/03/09 04:19:28;;;;;;;11.68;7.85;;;;;;;1.86;57.17;102043.50;5261272;28;20039;-72
2022/03/09 04:21:59;;;;;;;10.82;7.28;;;;;;;1.86;57.87;102046.06;5260790;28;20115;-72
2022/03/09 04:24:30;;;;;;;10.88;7.80;;;;;;;1.84;58.00;102040.09;5261486;28;20119;-72
2022/03/09 04:27:02;;;;;;;12.93;7.95;;;;;;;1.81;57.83;102032.44;5260605;28;20052;-72
2022/03/09 04:29:33;;;;;;;10.43;7.57;;;;;;;1.76;57.45;102026.56;5261433;28;20571;-72
2022/03/09 04:32:05;;;;;;;11.13;7.85;;;;;;;1.83;57.35;102038.41;5243794;28;20028;-72
2022/03/09 04:34:37;;;;;;;11.00;7.60;;;;;;;1.83;57.40;102031.50;5261310;28;20029;-72
2022/03/09 04:37:08;;;;;;;11.00;7.55;;;;;;;1.84;57.10;102028.00;5260430;28;20075;-72
2022/03/09 04:39:39;;;;;;;12.07;7.90;;;;;;;1.84;57.21;102022.84;5260439;28;20023;-74
2022/03/09 04:42:11;;;;;;;11.95;7.78;;;;;;;1.86;56.85;102028.81;5262036;28;20036;-72
2022/03/09 04:44:43;;;;;;;10.35;7.13;;;;;;;1.88;56.87;102018.44;5261212;28;20028;-72
2022/03/09 04:47:14;;;;;;;10.57;7.82;;;;;;;1.88;57.07;102029.63;5260943;28;20384;-72
2022/03/09 04:49:45;;;;;;;15.50;8.07;;;;;;;1.86;57.14;102028.81;5262317;28;20028;-72
2022/03/09 04:52:18;;;;;;;9.20;7.05;;;;;;;1.84;57.08;102024.59;5259797;28;20021;-72
2022/03/09 04:54:49;;;;;;;11.88;7.93;;;;;;;1.84;56.89;102025.44;5261754;28;20045;-72
2022/03/09 04:57:20;;;;;;;13.43;7.25;;;;;;;1.89;56.98;102023.53;5263733;28;20385;-72
2022/03/09 04:59:52;;;;;;;12.25;8.05;;;;;;;1.83;57.21;102018.56;5260534;28;20033;-72
2022/03/09 05:02:23;;;;;;;10.27;7.25;;;;;;;1.86;57.03;102033.16;5258991;28;20366;-72
2022/03/09 05:04:54;;;;;;;10.90;7.00;;;;;;;1.79;57.65;102027.31;5260704;28;20421;-72
2022/03/09 05:07:26;;;;;;;11.00;8.00;;;;;;;1.78;57.12;102027.34;5256698;28;20029;-72
2022/03/09 05:09:57;;;;;;;12.00;7.35;;;;;;;1.78;56.88;102024.75;5257871;28;20460;-74
2022/03/09 05:12:30;;;;;;;11.18;7.93;;;;;;;1.78;56.71;102027.34;5257838;28;20062;-72
2022/03/09 05:15:03;;;;;;;11.63;8.00;;;;;;;1.79;56.79;102026.47;5260100;28;20035;-72
2022/03/09 05:17:40;;;;;;;14.57;7.35;;;;;;;1.83;56.76;102031.50;5259464;28;20027;-72
2022/03/09 05:20:12;;;;;;;11.63;7.57;;;;;;;1.73;56.91;102026.63;5258109;28;20094;-72
2022/03/09 05:22:44;;;;;;;11.63;7.82;;;;;;;1.75;57.09;102022.28;5260521;28;20396;-72
2022/03/09 05:25:16;;;;;;;10.13;6.70;;;;;;;1.74;57.33;102028.31;5257360;28;20028;-73
2022/03/09 05:27:47;;;;;;;19.73;8.20;;;;;;;1.76;56.88;102031.72;5260115;28;20078;-72
2022/03/09 05:30:18;;;;;;;11.88;7.70;;;;;;;1.75;57.50;102024.88;5259112;28;20075;-72
2022/03/09 05:32:49;;;;;;;17.75;8.35;;;;;;;1.74;57.22;102030.91;5258216;28;20025;-72
2022/03/09 05:35:21;;;;;;;9.52;7.45;;;;;;;1.73;57.17;102031.81;5260285;28;20024;-72
2022/03/09 05:37:52;;;;;;;10.30;7.50;;;;;;;1.59;57.29;102017.56;5258063;28;20056;-71
2022/03/09 05:40:23;;;;;;;11.40;7.45;;;;;;;1.65;56.69;102027.69;5258524;28;20029;-71
2022/03/09 05:42:54;;;;;;;11.82;8.07;;;;;;;1.65;57.37;102042.34;5259440;28;20065;-72
2022/03/09 05:45:26;;;;;;;10.70;7.57;;;;;;;1.67;57.23;102038.00;5257544;28;20028;-72
2022/03/09 05:47:57;;;;;;;12.25;7.75;;;;;;;1.64;57.26;102036.34;5258773;28;20112;-72
2022/03/09 05:50:28;;;;;;;14.32;8.40;;;;;;;1.62;57.62;102040.69;5258684;28;20029;-72
2022/03/09 05:53:00;;;;;;;10.40;7.80;;;;;;;1.64;57.24;102048.41;5258493;28;20036;-72
2022/03/09 05:55:31;;;;;;;14.27;8.23;;;;;;;1.60;57.66;102052.81;5259162;28;20036;-72
2022/03/09 05:58:02;;;;;;;11.38;7.55;;;;;;;1.58;57.66;102053.75;5261276;28;20097;-72
2022/03/09 06:00:34;;;;;;;13.45;8.88;;;;;;;1.48;58.06;102063.50;5265012;28;20035;-72
2022/03/09 06:03:05;;;;;;;13.70;8.75;;;;;;;1.37;58.19;102068.09;5255848;28;20032;-72
2022/03/09 06:05:37;;;;;;;12.27;7.53;;;;;;;1.26;59.52;102067.53;5264126;28;20025;-72
2022/03/09 06:08:08;;;;;;;12.55;7.82;;;;;;;1.13;60.16;102070.41;5264116;28;20081;-72
2022/03/09 06:10:39;;;;;;;12.88;8.45;;;;;;;1.06;60.28;102070.63;5263204;28;20032;-72
2022/03/09 06:13:11;;;;;;;13.10;7.43;;;;;;;1.02;60.75;102085.34;5264154;28;20028;-72
2022/03/09 06:15:42;;;;;;;15.00;7.93;;;;;;;1.03;60.55;102078.47;5264610;28;20025;-72
2022/03/09 06:18:13;;;;;;;14.20;7.50;;;;;;;0.95;60.87;102073.50;5264506;28;20120;-72
2022/03/09 06:20:44;;;;;;;14.93;8.30;;;;;;;0.94;61.49;102090.69;5263328;28;20048;-72
2022/03/09 06:23:17;;;;;;;12.90;8.20;;;;;;;0.94;61.19;102076.94;5261645;28;20029;-72
2022/03/09 06:25:48;;;;;;;15.00;8.70;;;;;;;0.90;61.79;102083.91;5263913;28;20035;-72
2022/03/09 06:28:20;;;;;;;13.40;8.05;;;;;;;0.86;61.77;102073.69;5262278;28;20461;-72
2022/03/09 06:30:51;;;;;;;12.77;8.45;;;;;;;0.84;62.22;102081.50;5265005;28;20069;-72
2022/03/09 06:33:23;;;;;;;11.32;8.35;;;;;;;0.79;62.44;102079.91;5243758;28;20940;-72
2022/03/09 06:35:54;;;;;;;13.48;8.63;;;;;;;0.68;62.90;102064.69;5263276;28;20588;-72
2022/03/09 06:38:25;;;;;;;12.65;8.00;;;;;;;0.84;62.56;102089.22;5264268;28;20538;-72
2022/03/09 06:40:56;;;;;;;11.20;7.72;;;;;;;0.82;62.61;102085.00;5260859;28;20451;-72
2022/03/09 06:43:28;;;;;;;11.23;8.23;;;;;;;0.86;62.73;102095.19;5259250;28;20113;-72
2022/03/09 06:45:59;;;;;;;14.00;8.80;;;;;;;0.85;62.97;102096.09;5263302;28;20063;-72
2022/03/09 06:48:31;;;;;;;14.50;8.38;;;;;;;0.85;62.93;102108.13;5263315;28;20021;-73
2022/03/09 06:51:02;;;;;;;13.30;8.63;;;;;;;0.90;63.00;102114.03;5263706;28;20075;-72
2022/03/09 06:53:33;;;;;;;15.32;8.70;;;;;;;0.82;62.87;102103.03;5260346;28;20128;-72
2022/03/09 06:56:05;;;;;;;10.98;7.68;;;;;;;0.92;62.46;102114.84;5263501;28;20047;-73
2022/03/09 06:58:36;;;;;;;14.68;8.52;;;;;;;0.94;63.00;102116.50;5263907;28;20137;-72
2022/03/09 07:01:07;;;;;;;12.05;8.07;;;;;;;1.05;62.70;102125.72;5256844;28;20032;-72
2022/03/09 07:03:39;;;;;;;14.07;8.68;;;;;;;1.05;62.60;102126.56;5265026;28;20020;-72
2022/03/09 07:06:11;;;;;;;13.82;8.52;;;;;;;1.10;62.40;102116.97;5265434;28;20033;-72
2022/03/09 07:08:42;;;;;;;17.40;9.00;;;;;;;1.19;62.46;102123.63;5266026;28;20024;-72
2022/03/09 07:11:14;;;;;;;14.93;8.77;;;;;;;1.27;62.16;102132.03;5265411;28;20033;-72
2022/03/09 07:13:45;;;;;;;12.95;7.95;;;;;;;1.36;60.97;102124.03;5264014;28;20534;-72
2022/03/09 07:16:16;;;;;;;15.60;8.65;;;;;;;1.50;60.24;102130.59;5264449;28;20087;-72
2022/03/09 07:18:47;;;;;;;12.82;8.57;;;;;;;1.61;60.09;102129.41;5255897;28;20044;-72
2022/03/09 07:21:19;;;;;;;18.42;8.75;;;;;;;1.74;59.26;102139.41;5260881;28;20037;-72
2022/03/09 07:23:50;;;;;;;17.70;7.90;;;;;;;1.83;58.86;102128.84;5261306;28;20033;-72
2022/03/09 07:26:21;;;;;;;16.83;8.57;;;;;;;1.95;59.01;102131.91;5258930;28;20680;-72
2022/03/09 07:28:53;;;;;;;14.23;7.97;;;;;;;2.10;57.70;102122.88;5263163;28;20422;-72
2022/03/09 07:31:24;;;;;;;15.18;9.00;;;;;;;2.19;57.56;102125.19;5264570;28;20032;-72
2022/03/09 07:33:55;;;;;;;14.50;7.65;;;;;;;2.38;55.96;102132.41;5263418;28;20020;-72
2022/03/09 07:36:27;;;;;;;12.90;8.35;;;;;;;2.46;55.12;102127.00;5262825;28;20496;-72
2022/03/09 07:38:58;;;;;;;11.95;8.05;;;;;;;2.63;55.17;102127.34;5260192;28;20477;-73
2022/03/09 07:41:29;;;;;;;15.25;8.75;;;;;;;2.72;54.26;102115.84;5262264;28;20486;-73
2022/03/09 07:44:01;;;;;;;13.25;8.27;;;;;;;2.82;54.27;102120.69;5262814;28;20036;-73
2022/03/09 07:46:32;;;;;;;13.60;7.63;;;;;;;2.91;54.21;102124.72;5260494;28;20033;-73
2022/03/09 07:49:03;;;;;;;10.68;7.68;;;;;;;2.99;52.75;102120.13;5264697;28;20496;-73
2022/03/09 07:51:35;;;;;;;12.50;8.23;;;;;;;3.12;53.20;102118.00;5264677;28;20036;-73
2022/03/09 07:54:06;;;;;;;12.73;8.20;;;;;;;3.32;51.13;102122.50;5259637;28;20037;-72
2022/03/09 07:56:47;;;;;;;14.40;8.50;;;;;;;3.44;51.52;102119.50;5242289;28;20032;-73
2022/03/09 07:59:18;;;;;;;14.38;8.82;;;;;;;3.51;51.00;102123.56;5261060;28;20033;-72
2022/03/09 08:01:52;;;;;;;11.48;7.50;;;;;;;3.70;49.96;102125.53;5262039;28;20059;-72
2022/03/09 08:04:24;;;;;;;10.85;7.45;;;;;;;3.74;49.51;102132.28;5262205;28;20035;-73
2022/03/09 08:06:55;;;;;;;9.65;7.40;;;;;;;3.73;50.49;102115.06;5262662;28;20975;-73
2022/03/09 08:09:27;;;;;;;13.07;7.57;;;;;;;3.90;49.53;102136.00;5260855;28;20056;-72
2022/03/09 08:11:58;;;;;;;11.52;8.18;;;;;;;3.98;50.27;102131.41;5260275;28;20031;-73
2022/03/09 08:14:29;;;;;;;12.77;7.97;;;;;;;4.03;48.79;102132.09;5262774;28;20062;-72
2022/03/09 08:17:01;;;;;;;12.43;8.30;;;;;;;4.13;48.44;102136.03;5267198;28;20453;-74
2022/03/09 08:19:33;;;;;;;13.75;8.27;;;;;;;4.32;47.36;102146.56;5264466;28;20239;-72
2022/03/09 08:22:04;;;;;;;16.80;9.32;;;;;;;4.39;48.17;102148.03;5263471;28;20028;-72
2022/03/09 08:24:35;;;;;;;15.63;8.95;;;;;;;4.53;48.43;102155.28;5267316;28;20017;-71
2022/03/09 08:27:07;;;;;;;14.85;8.82;;;;;;;4.64;47.92;102149.66;5262008;28;20024;-72
2022/03/09 08:29:38;;;;;;;16.70;9.32;;;;;;;4.74;47.58;102145.81;5263326;28;20023;-71
2022/03/09 08:32:10;;;;;;;14.65;9.10;;;;;;;4.86;46.54;102141.88;5260494;28;20020;-72
2022/03/09 08:34:41;;;;;;;12.82;9.07;;;;;;;4.97;46.27;102126.72;5262246;28;20013;-72
2022/03/09 08:37:13;;;;;;;12.90;8.70;;;;;;;4.98;46.76;102140.53;5262973;28;20035;-72
2022/03/09 08:39:47;;;;;;;12.30;8.73;;;;;;;5.09;46.05;102153.94;5260674;28;20024;-72
2022/03/09 08:42:18;;;;;;;11.70;8.82;;;;;;;5.12;45.28;102139.06;5262195;28;20028;-72
2022/03/09 08:44:50;;;;;;;12.23;8.73;;;;;;;5.26;46.02;102143.69;5261269;28;20094;-72
2022/03/09 08:47:22;;;;;;;13.48;8.43;;;;;;;5.26;45.50;102141.09;5262879;28;20045;-72
2022/03/09 08:49:54;;;;;;;11.30;8.52;;;;;;;5.35;45.64;102152.88;5266182;28;20047;-72
2022/03/09 08:52:26;;;;;;;11.82;8.85;;;;;;;5.46;45.48;102140.25;5265164;28;20123;-72
2022/03/09 08:54:57;;;;;;;11.40;8.75;;;;;;;5.64;44.66;102150.75;5250911;28;20131;-72
2022/03/09 08:57:29;;;;;;;12.80;9.30;;;;;;;5.76;44.85;102155.47;5249703;28;20394;-72
2022/03/09 09:00:03;;;;;;;14.77;9.70;;;;;;;5.88;44.16;102152.31;5260614;28;20738;-72
2022/03/09 09:02:35;;;;;;;16.55;9.43;;;;;;;6.08;44.12;102157.50;5259877;28;20103;-72
2022/03/09 09:05:06;;;;;;;12.30;9.18;;;;;;;6.21;43.79;102146.53;5263919;28;20444;-72
2022/03/09 09:07:38;;;;;;;14.02;9.55;;;;;;;6.38;43.46;102153.56;5262755;28;20035;-72
2022/03/09 09:10:09;;;;;;;14.50;8.75;;;;;;;6.46;42.56;102151.47;5263116;28;20148;-72
2022/03/09 09:12:41;;;;;;;14.63;9.63;;;;;;;6.67;42.50;102150.47;5259857;28;20025;-72
2022/03/09 09:15:12;;;;;;;18.98;10.27;;;;;;;6.74;42.98;102141.44;5258580;28;20048;-72
2022/03/09 09:17:43;;;;;;;15.45;10.32;;;;;;;6.83;42.31;102137.53;5262478;28;20027;-72
2022/03/09 09:20:15;;;;;;;15.35;10.15;;;;;;;7.01;41.86;102139.25;5263616;28;20501;-72
2022/03/09 09:22:46;;;;;;;16.20;9.35;;;;;;;7.07;42.51;102143.31;5262124;28;20017;-72
2022/03/09 09:25:17;;;;;;;14.98;10.13;;;;;;;7.21;41.78;102134.81;5251422;28;20029;-72
2022/03/09 09:27:50;;;;;;;17.25;10.20;;;;;;;7.25;41.01;102146.78;5260871;28;20082;-72
2022/03/09 09:30:22;;;;;;;16.65;10.50;;;;;;;7.35;41.42;102140.19;5267355;28;20047;-71
2022/03/09 09:32:53;;;;;;;18.92;10.10;;;;;;;7.45;41.44;102135.31;5263954;28;20025;-74
2022/03/09 09:35:25;;;;;;;17.85;9.98;;;;;;;7.45;42.09;102125.75;5264433;28;20036;-72
2022/03/09 09:37:57;;;;;;;15.90;10.40;;;;;;;7.66;41.61;102139.44;5265547;28;20021;-74
2022/03/09 09:40:31;;;;;;;16.52;10.57;;;;;;;7.79;41.48;102134.44;5267806;28;20047;-73
2022/03/09 09:43:07;;;;;;;16.33;10.18;;;;;;;7.87;40.80;102140.09;5263130;28;20029;-73
2022/03/09 09:45:39;;;;;;;18.88;10.82;;;;;;;8.07;40.81;102146.00;5263560;28;20043;-73
2022/03/09 09:48:12;;;;;;;16.50;11.30;;;;;;;8.11;40.15;102143.19;5262685;28;20470;-73
2022/03/09 09:50:43;;;;;;;15.07;10.73;;;;;;;8.32;40.34;102137.72;5264007;28;20738;-73
2022/03/09 09:53:15;;;;;;;17.53;11.20;;;;;;;8.32;40.40;102141.16;5264639;28;20063;-73
2022/03/09 09:55:47;;;;;;;19.98;10.63;;;;;;;8.53;40.13;102141.78;5262906;28;20025;-73
2022/03/09 09:58:19;;;;;;;18.90;11.20;;;;;;;8.74;39.58;102142.34;5261512;28;20537;-73
2022/03/09 10:00:51;;;;;;;21.38;11.73;;;;;;;8.80;38.90;102136.78;5265313;28;20016;-73
2022/03/09 10:03:22;;;;;;;18.52;12.27;;;;;;;8.95;39.37;102142.91;5265932;28;20493;-73
2022/03/09 10:05:53;;;;;;;18.60;11.55;;;;;;;9.04;39.28;102136.31;5248036;28;20025;-73
2022/03/09 10:08:25;;;;;;;18.95;11.55;;;;;;;9.16;39.19;102131.19;5266992;28;20021;-73
2022/03/09 10:11:01;;;;;;;18.50;11.32;;;;;;;9.40;39.89;102141.19;5264206;28;20020;-73
2022/03/09 10:13:41;;;;;;;19.15;11.57;;;;;;;9.53;38.73;102138.66;5265653;28;20129;-73
2022/03/09 10:16:20;;;;;;;19.08;11.63;;;;;;;9.71;38.86;102138.41;5261722;28;20536;-73
2022/03/09 10:18:56;;;;;;;17.20;11.35;;;;;;;9.69;38.49;102136.81;5261853;28;20512;-73
2022/03/09 10:21:35;;;;;;;20.20;11.88;;;;;;;9.68;38.73;102130.72;5261769;28;20029;-73
2022/03/09 10:24:09;;;;;;;19.77;12.90;;;;;;;9.75;38.61;102129.44;5249722;28;20079;-73
2022/03/09 10:26:40;;;;;;;19.45;11.45;;;;;;;9.97;38.12;102126.34;5262010;28;20041;-73
2022/03/09 10:29:17;;;;;;;18.93;12.10;;;;;;;10.23;38.71;102113.41;5262566;28;20055;-73
2022/03/09 10:31:51;;;;;;;18.58;12.63;;;;;;;10.30;37.95;102111.25;5262233;28;20035;-73
2022/03/09 10:34:24;;;;;;;17.92;12.55;;;;;;;10.37;37.55;102118.63;5261656;28;20059;-73
2022/03/09 10:37:02;;;;;;;20.67;13.18;;;;;;;10.50;37.72;102118.69;5263215;28;20074;-73
2022/03/09 10:39:39;;;;;;;22.33;12.88;;;;;;;10.59;37.69;102112.03;5262086;28;20037;-73
2022/03/09 10:42:25;;;;;;;18.20;13.13;;;;;;;10.97;37.99;102117.38;5263320;28;20044;-74
2022/03/09 10:44:57;;;;;;;23.85;12.82;;;;;;;10.88;37.20;102125.88;5263038;28;20031;-73
2022/03/09 10:47:43;;;;;;;21.52;13.48;;;;;;;11.12;36.81;102123.38;5266052;28;20481;-73
2022/03/09 10:50:24;;;;;;;23.48;14.32;;;;;;;11.20;36.46;102118.47;5262373;28;20969;-73
2022/03/09 10:53:02;;;;;;;22.67;12.88;;;;;;;11.36;37.13;102124.34;5265213;28;20041;-73
2022/03/09 10:55:37;;;;;;;19.55;12.85;;;;;;;11.49;37.16;102120.91;5262939;28;20016;-74
2022/03/09 10:58:13;;;;;;;19.40;13.05;;;;;;;11.50;35.79;102119.97;5263339;28;20029;-74
2022/03/09 11:00:52;;;;;;;20.63;12.35;;;;;;;11.60;35.59;102115.78;5261210;28;20466;-74
2022/03/09 11:03:26;;;;;;;19.05;12.63;;;;;;;11.59;36.40;102121.94;5261042;28;20047;-74
2022/03/09 11:06:02;;;;;;;20.83;14.00;;;;;;;11.79;35.15;102118.81;5262140;28;20462;-74
2022/03/09 11:08:36;;;;;;;25.38;14.05;;;;;;;11.86;35.40;102112.22;5262191;28;20268;-74
2022/03/09 11:11:10;;;;;;;19.17;13.55;;;;;;;12.01;36.15;102112.06;5261313;28;20031;-74
2022/03/09 11:13:41;;;;;;;21.10;13.88;;;;;;;12.09;35.42;102115.00;5260029;28;20036;-74
2022/03/09 11:16:13;;;;;;;20.05;13.25;;;;;;;12.29;35.33;102110.94;5265532;28;20021;-74
2022/03/09 11:18:45;;;;;;;20.35;14.32;;;;;;;12.46;35.56;102109.72;5264034;28;20381;-74
2022/03/09 11:21:17;;;;;;;21.70;13.98;;;;;;;12.51;34.50;102110.25;5263109;28;20382;-74
2022/03/09 11:23:50;;;;;;;21.42;13.95;;;;;;;12.52;34.80;102102.22;5263284;28;20028;-74
2022/03/09 11:26:28;;;;;;;23.08;14.13;;;;;;;12.80;35.11;102097.56;5266401;28;20028;-74
2022/03/09 11:29:03;;;;;;;21.77;14.43;;;;;;;12.69;33.85;102079.97;5265253;28;20473;-74
2022/03/09 11:31:52;;;;;;;25.30;14.70;;;;;;;12.89;34.90;102097.72;5265848;28;20017;-74
2022/03/09 11:34:29;;;;;;;23.55;15.20;;;;;;;13.04;34.23;102094.91;5262922;28;20386;-74
2022/03/09 11:37:09;;;;;;;20.02;14.50;;;;;;;13.12;33.29;102092.53;5264491;28;20385;-74
2022/03/09 11:39:44;;;;;;;22.30;14.90;;;;;;;13.02;33.67;102076.59;5262618;28;20051;-74
2022/03/09 11:42:21;;;;;;;20.92;15.48;;;;;;;13.13;33.44;102070.53;5264111;28;20047;-74
2022/03/09 11:45:13;;;;;;;24.80;14.60;;;;;;;13.20;32.92;102084.06;5260815;28;20017;-74
2022/03/09 11:48:10;;;;;;;20.77;14.95;;;;;;;13.38;32.62;102085.31;5258251;28;20474;-74
2022/03/09 11:50:44;;;;;;;22.38;15.85;;;;;;;13.28;32.45;102079.91;5266594;28;20690;-74
2022/03/09 11:53:35;;;;;;;26.27;15.60;;;;;;;13.42;32.46;102072.75;5262791;28;20048;-74